createdAt,value
2018-07-10T00:03:24.954Z,0.10
2018-07-10T00:06:16.625Z,0.40
2018-07-10T00:09:32.211Z,0.00
2018-07-10T00:12:01.960Z,0.40
2018-07-10T00:14:31.633Z,0.23
2018-07-10T00:17:01.284Z,0.20
2018-07-10T00:19:31.246Z,0.10
2018-07-10T00:22:01.122Z,0.20
2018-07-10T00:24:31.020Z,0.00
2018-07-10T00:27:01.035Z,0.00
2018-07-10T00:29:30.650Z,0.00
2018-07-10T00:32:00.751Z,0.00
2018-07-10T00:34:30.854Z,0.00
2018-07-10T00:37:00.871Z,0.00
2018-07-10T00:39:30.636Z,0.20
2018-07-10T00:42:00.510Z,0.47
2018-07-10T00:44:30.214Z,0.07
2018-07-10T00:46:59.878Z,0.00
2018-07-10T00:49:29.966Z,0.07
2018-07-10T00:52:00.052Z,0.00
2018-07-10T00:54:30.149Z,0.00
2018-07-10T00:57:00.155Z,0.00
2018-07-10T00:59:30.232Z,0.00
2018-07-10T01:02:00.220Z,0.00
2018-07-10T01:04:29.873Z,0.00
2018-07-10T01:06:59.807Z,0.03
2018-07-10T01:09:29.731Z,0.10
2018-07-10T01:11:59.534Z,0.33
2018-07-10T01:14:29.163Z,0.00
2018-07-10T01:16:58.986Z,0.30
2018-07-10T01:19:28.770Z,0.00
2018-07-10T01:21:58.534Z,0.10
2018-07-10T01:24:28.548Z,0.10
2018-07-10T01:26:58.367Z,0.03
2018-07-10T01:29:33.285Z,0.37
2018-07-10T01:32:03.276Z,0.20
2018-07-10T01:34:33.326Z,0.10
2018-07-10T01:37:03.739Z,0.00
2018-07-10T01:39:33.637Z,0.10
2018-07-10T01:42:03.497Z,0.20
2018-07-10T01:44:33.215Z,0.00
2018-07-10T01:47:03.027Z,0.10
2018-07-10T01:49:32.923Z,0.00
2018-07-10T01:52:02.972Z,0.07
2018-07-10T01:54:32.674Z,0.00
2018-07-10T01:57:02.842Z,0.20
2018-07-10T01:59:32.753Z,0.00
2018-07-10T02:02:02.504Z,0.10
2018-07-10T02:04:32.520Z,0.00
2018-07-10T02:07:02.410Z,0.33
2018-07-10T02:09:32.319Z,0.03
2018-07-10T02:12:02.072Z,0.00
2018-07-10T02:14:31.869Z,0.33
2018-07-10T02:17:01.649Z,0.30
2018-07-10T02:19:31.680Z,0.10
2018-07-10T02:22:01.638Z,0.00
2018-07-10T02:24:31.504Z,0.00
2018-07-10T02:27:01.627Z,0.00
2018-07-10T02:29:31.626Z,0.60
2018-07-10T02:32:01.451Z,0.40
2018-07-10T02:34:31.416Z,0.10
2018-07-10T02:37:03.209Z,0.00
2018-07-10T02:39:33.150Z,0.00
2018-07-10T02:42:03.235Z,0.00
2018-07-10T02:44:32.851Z,0.00
2018-07-10T02:47:03.324Z,0.20
2018-07-10T02:49:32.990Z,0.00
2018-07-10T02:52:05.072Z,0.10
2018-07-10T02:54:36.859Z,0.00
2018-07-10T02:57:08.636Z,0.10
2018-07-10T02:59:42.007Z,0.30
2018-07-10T03:02:20.686Z,0.30
2018-07-10T03:05:00.972Z,0.20
2018-07-10T03:07:32.356Z,0.00
2018-07-10T03:10:02.617Z,0.10
2018-07-10T03:12:35.023Z,0.07
2018-07-10T03:15:08.148Z,0.23
2018-07-10T03:17:38.315Z,0.00
2018-07-10T03:20:09.139Z,0.33
2018-07-10T03:22:39.058Z,0.00
2018-07-10T03:25:09.619Z,0.30
2018-07-10T03:27:39.782Z,0.13
2018-07-10T03:30:09.510Z,0.33
2018-07-10T03:32:39.545Z,0.00
2018-07-10T03:35:09.283Z,0.40
2018-07-10T03:37:39.137Z,0.10
2018-07-10T03:40:08.854Z,0.10
2018-07-10T03:42:38.671Z,0.00
2018-07-10T03:45:08.394Z,0.30
2018-07-10T03:47:38.262Z,0.10
2018-07-10T03:50:08.150Z,0.40
2018-07-10T03:52:38.223Z,0.10
2018-07-10T03:55:11.054Z,0.17
2018-07-10T03:57:41.065Z,0.00
2018-07-10T04:00:13.052Z,0.00
2018-07-10T04:02:44.343Z,0.10
2018-07-10T04:05:14.474Z,0.00
2018-07-10T04:07:45.258Z,0.27
2018-07-10T04:10:18.442Z,0.17
2018-07-10T04:12:50.294Z,0.10
2018-07-10T04:15:20.476Z,0.67
2018-07-10T04:18:04.365Z,0.10
2018-07-10T04:21:46.747Z,0.10
2018-07-10T04:24:19.558Z,0.00
2018-07-10T04:26:58.037Z,0.23
2018-07-10T04:29:48.718Z,0.10
2018-07-10T04:32:18.879Z,0.87
2018-07-10T04:34:49.979Z,0.30
2018-07-10T04:37:19.909Z,0.43
2018-07-10T04:39:49.680Z,0.10
2018-07-10T04:42:23.835Z,0.10
2018-07-10T04:45:08.655Z,0.10
2018-07-10T04:47:44.502Z,0.40
2018-07-10T04:50:22.619Z,0.13
2018-07-10T04:53:01.503Z,0.10
2018-07-10T04:55:32.594Z,0.23
2018-07-10T04:58:05.955Z,0.50
2018-07-10T05:00:39.024Z,0.20
2018-07-10T05:03:08.926Z,0.63
2018-07-10T05:05:38.895Z,0.90
2018-07-10T05:08:08.635Z,0.30
2018-07-10T05:10:38.247Z,0.20
2018-07-10T05:13:08.249Z,0.83
2018-07-10T05:15:40.145Z,0.20
2018-07-10T05:18:11.418Z,0.97
2018-07-10T05:20:45.163Z,0.30
2018-07-10T05:23:16.579Z,0.53
2018-07-10T05:25:55.130Z,0.50
2018-07-10T05:28:27.054Z,0.10
2018-07-10T05:30:59.916Z,0.50
2018-07-10T05:33:30.476Z,0.10
2018-07-10T05:36:01.731Z,0.10
2018-07-10T05:38:40.989Z,0.20
2018-07-10T05:41:13.890Z,0.70
2018-07-10T05:43:49.855Z,0.63
2018-07-10T05:46:22.318Z,0.30
2018-07-10T05:49:07.998Z,0.97
2018-07-10T05:51:49.775Z,0.53
2018-07-10T05:54:19.571Z,0.67
2018-07-10T05:56:50.318Z,0.10
2018-07-10T05:59:20.116Z,0.50
2018-07-10T06:01:49.908Z,0.10
2018-07-10T06:04:19.883Z,0.77
2018-07-10T06:06:49.801Z,0.40
2018-07-10T06:09:19.600Z,1.17
2018-07-10T06:11:49.249Z,2.03
2018-07-10T06:14:19.207Z,0.47
2018-07-10T06:16:51.335Z,0.50
2018-07-10T06:19:21.382Z,0.37
2018-07-10T06:21:51.826Z,0.00
2018-07-10T06:24:26.716Z,0.30
2018-07-10T06:27:07.376Z,0.20
2018-07-10T06:29:50.470Z,0.30
2018-07-10T06:32:22.103Z,0.37
2018-07-10T06:34:57.381Z,0.20
2018-07-10T06:37:34.430Z,0.10
2018-07-10T06:40:06.522Z,0.10
2018-07-10T06:42:51.611Z,0.93
2018-07-10T06:45:21.470Z,0.57
2018-07-10T06:47:51.492Z,0.30
2018-07-10T06:50:22.482Z,0.83
2018-07-10T06:52:53.694Z,0.70
2018-07-10T06:55:23.696Z,0.23
2018-07-10T06:57:55.004Z,0.57
2018-07-10T07:00:25.262Z,0.30
2018-07-10T07:02:55.190Z,0.77
2018-07-10T07:05:25.168Z,0.97
2018-07-10T07:07:54.886Z,0.33
2018-07-10T07:10:25.861Z,0.53
2018-07-10T07:12:55.894Z,0.97
2018-07-10T07:15:25.759Z,0.90
2018-07-10T07:17:55.628Z,0.40
2018-07-10T07:20:25.445Z,1.10
2018-07-10T07:22:55.302Z,0.37
2018-07-10T07:25:25.060Z,0.30
2018-07-10T07:27:54.862Z,0.40
2018-07-10T07:30:24.717Z,0.53
2018-07-10T07:32:54.441Z,15.87
2018-07-10T07:35:24.074Z,17.70
2018-07-10T07:37:53.630Z,14.13
2018-07-10T07:40:23.435Z,14.07
2018-07-10T07:42:53.071Z,18.20
2018-07-10T07:45:22.871Z,15.07
2018-07-10T07:47:53.274Z,11.83
2018-07-10T07:50:23.192Z,12.20
2018-07-10T07:52:53.112Z,13.43
2018-07-10T07:55:23.175Z,14.33
2018-07-10T07:57:52.950Z,11.67
2018-07-10T08:00:22.813Z,12.17
2018-07-10T08:02:53.033Z,10.07
2018-07-10T08:05:22.842Z,12.03
2018-07-10T08:07:52.609Z,10.10
2018-07-10T08:10:22.490Z,9.50
2018-07-10T08:12:52.400Z,9.17
2018-07-10T08:15:22.503Z,9.10
2018-07-10T08:17:52.483Z,9.10
2018-07-10T08:20:22.539Z,13.37
2018-07-10T08:22:52.558Z,13.47
2018-07-10T08:25:24.687Z,13.73
2018-07-10T08:27:55.043Z,13.83
2018-07-10T08:30:25.244Z,13.13
2018-07-10T08:32:55.258Z,13.67
2018-07-10T08:35:25.078Z,12.73
2018-07-10T08:37:54.850Z,13.97
2018-07-10T08:40:24.613Z,11.63
2018-07-10T08:42:54.714Z,13.10
2018-07-10T08:45:24.799Z,13.77
2018-07-10T08:47:54.963Z,13.50
2018-07-10T08:50:25.063Z,11.73
2018-07-10T08:52:55.253Z,12.23
2018-07-10T08:55:25.426Z,10.70
2018-07-10T08:57:55.675Z,11.90
2018-07-10T09:00:25.874Z,11.53
2018-07-10T09:02:55.981Z,13.23
2018-07-10T09:05:25.782Z,13.20
2018-07-10T09:07:55.672Z,14.13
2018-07-10T09:10:25.799Z,14.33
2018-07-10T09:12:55.952Z,14.07
2018-07-10T09:15:29.281Z,15.20
2018-07-10T09:17:59.275Z,14.80
2018-07-10T09:20:33.841Z,12.13
2018-07-10T09:23:04.085Z,12.73
2018-07-10T09:25:34.162Z,12.23
2018-07-10T09:28:04.452Z,11.53
2018-07-10T09:30:34.587Z,12.97
2018-07-10T09:33:04.816Z,12.07
2018-07-10T09:35:34.576Z,10.90
2018-07-10T09:38:04.474Z,10.83
2018-07-10T09:40:34.943Z,11.20
2018-07-10T09:43:05.422Z,10.07
2018-07-10T09:45:37.002Z,11.17
2018-07-10T09:48:08.232Z,10.70
2018-07-10T09:50:38.910Z,10.17
2018-07-10T09:53:09.108Z,9.07
2018-07-10T09:55:39.176Z,11.00
2018-07-10T09:58:09.551Z,9.03
2018-07-10T10:00:44.628Z,7.23
2018-07-10T10:03:14.495Z,9.33
2018-07-10T10:05:45.318Z,7.80
2018-07-10T10:08:15.117Z,7.33
2018-07-10T10:10:45.151Z,7.33
2018-07-10T10:13:15.286Z,7.77
2018-07-10T10:15:45.394Z,9.53
2018-07-10T10:18:15.507Z,12.33
2018-07-10T10:20:46.597Z,11.80
2018-07-10T10:23:16.578Z,12.47
2018-07-10T10:25:50.458Z,13.37
2018-07-10T10:28:23.260Z,12.77
2018-07-10T10:30:53.396Z,12.57
2018-07-10T10:33:23.213Z,11.70
2018-07-10T10:35:53.076Z,12.80
2018-07-10T10:38:24.125Z,12.87
2018-07-10T10:40:54.353Z,11.50
2018-07-10T10:43:24.568Z,12.97
2018-07-10T10:45:54.604Z,12.03
2018-07-10T10:48:24.864Z,13.10
2018-07-10T10:50:54.990Z,12.83
2018-07-10T10:53:25.117Z,12.77
2018-07-10T10:55:55.231Z,12.00
2018-07-10T10:58:25.429Z,13.97
2018-07-10T11:00:55.606Z,12.87
2018-07-10T11:03:25.526Z,12.67
2018-07-10T11:05:55.390Z,12.77
2018-07-10T11:08:25.526Z,12.07
2018-07-10T11:10:55.673Z,9.93
2018-07-10T11:13:25.786Z,11.60
2018-07-10T11:15:56.057Z,11.13
2018-07-10T11:18:37.437Z,10.37
2018-07-10T11:22:12.902Z,10.97
2018-07-10T11:24:58.097Z,11.27
2018-07-10T11:28:31.540Z,11.90
2018-07-10T11:31:01.532Z,11.13
2018-07-10T11:33:31.363Z,10.40
2018-07-10T11:36:01.184Z,9.93
2018-07-10T11:38:31.325Z,10.87
2018-07-10T11:41:01.525Z,11.10
2018-07-10T11:43:31.795Z,9.87
2018-07-10T11:46:01.691Z,11.37
2018-07-10T11:48:31.570Z,10.67
2018-07-10T11:51:01.445Z,12.27
2018-07-10T11:53:31.351Z,11.37
2018-07-10T11:56:01.196Z,12.23
2018-07-10T11:58:30.996Z,11.90
2018-07-10T12:01:00.691Z,11.27
2018-07-10T12:03:37.297Z,9.97
2018-07-10T12:06:07.863Z,11.03
2018-07-10T12:08:37.894Z,12.80
2018-07-10T12:11:16.512Z,12.67
2018-07-10T12:13:46.193Z,12.33
2018-07-10T12:16:15.909Z,10.40
2018-07-10T12:18:45.947Z,11.90
2018-07-10T12:21:17.005Z,11.60
2018-07-10T12:23:47.196Z,11.23
2018-07-10T12:26:17.307Z,10.93
2018-07-10T12:28:47.443Z,11.23
2018-07-10T12:31:17.421Z,11.63
2018-07-10T12:33:47.212Z,11.80
2018-07-10T12:36:16.787Z,9.50
2018-07-10T12:38:46.480Z,9.13
2018-07-10T12:41:16.371Z,8.80
2018-07-10T12:43:46.198Z,8.70
2018-07-10T12:46:16.144Z,9.67
2018-07-10T12:48:46.310Z,7.97
2018-07-10T12:51:16.302Z,8.00
2018-07-10T12:53:46.198Z,7.73
2018-07-10T12:56:15.964Z,7.73
2018-07-10T12:58:45.570Z,7.40
2018-07-10T13:01:15.595Z,7.50
2018-07-10T13:03:45.282Z,7.40
2018-07-10T13:06:15.464Z,6.90
2018-07-10T13:08:45.123Z,6.97
2018-07-10T13:11:14.825Z,8.30
2018-07-10T13:13:44.759Z,7.40
2018-07-10T13:16:14.746Z,7.73
2018-07-10T13:18:44.408Z,7.97
2018-07-10T13:21:14.551Z,7.83
2018-07-10T13:23:44.663Z,8.03
2018-07-10T13:26:14.712Z,7.97
2018-07-10T13:28:44.550Z,7.33
2018-07-10T13:31:14.229Z,8.28
2018-07-10T13:33:43.994Z,7.28
2018-07-10T13:36:14.135Z,8.03
2018-07-10T13:38:43.988Z,7.97
2018-07-10T13:41:13.737Z,7.42
2018-07-10T13:43:43.750Z,7.85
2018-07-10T13:46:13.736Z,7.20
2018-07-10T13:48:43.713Z,6.10
2018-07-10T13:51:13.567Z,6.20
2018-07-10T13:53:43.279Z,6.87
2018-07-10T13:56:13.387Z,6.53
2018-07-10T13:58:43.214Z,6.55
2018-07-10T14:01:13.186Z,6.93
2018-07-10T14:03:42.940Z,6.40
2018-07-10T14:06:12.998Z,5.22
2018-07-10T14:08:42.944Z,5.80
2018-07-10T14:11:12.634Z,6.83
2018-07-10T14:13:42.725Z,6.70
2018-07-10T14:16:12.795Z,6.73
2018-07-10T14:18:42.695Z,7.37
2018-07-10T14:21:12.881Z,8.30
2018-07-10T14:23:42.673Z,7.87
2018-07-10T14:26:12.495Z,8.43
2018-07-10T14:28:42.162Z,8.93
2018-07-10T14:31:11.834Z,8.33
2018-07-10T14:33:41.623Z,8.37
2018-07-10T14:36:11.807Z,8.90
2018-07-10T14:38:42.895Z,9.67
2018-07-10T14:41:14.228Z,10.23
2018-07-10T14:43:46.175Z,10.47
2018-07-10T14:46:17.791Z,10.93
2018-07-10T14:48:53.030Z,11.60
2018-07-10T14:51:26.052Z,11.37
2018-07-10T14:53:56.108Z,13.17
2018-07-10T14:56:26.135Z,12.57
2018-07-10T14:58:57.275Z,13.43
2018-07-10T15:01:27.094Z,13.90
2018-07-10T15:03:57.589Z,14.63
2018-07-10T15:06:27.871Z,15.63
2018-07-10T15:08:57.808Z,16.53
2018-07-10T15:11:27.991Z,17.27
2018-07-10T15:14:03.354Z,17.53
2018-07-10T15:16:38.312Z,17.37
2018-07-10T15:19:08.340Z,17.37
2018-07-10T15:21:38.571Z,16.57
2018-07-10T15:24:09.526Z,17.77
2018-07-10T15:26:39.383Z,17.35
2018-07-10T15:29:09.131Z,19.27
2018-07-10T15:31:39.050Z,18.53
2018-07-10T15:34:08.954Z,20.00
2018-07-10T15:36:39.023Z,20.50
2018-07-10T15:39:08.779Z,19.80
2018-07-10T15:41:38.812Z,19.93
2018-07-10T15:44:08.442Z,20.17
2018-07-10T15:46:38.048Z,20.83
2018-07-10T15:49:07.727Z,22.33
2018-07-10T15:51:37.334Z,20.90
2018-07-10T15:54:07.357Z,22.20
2018-07-10T15:56:37.056Z,22.57
2018-07-10T15:59:06.809Z,20.57
2018-07-10T16:01:37.015Z,20.40
2018-07-10T16:04:06.994Z,21.67
2018-07-10T16:06:37.623Z,19.17
2018-07-10T16:09:14.187Z,19.90
2018-07-10T16:11:44.174Z,18.57
2018-07-10T16:14:13.818Z,19.23
2018-07-10T16:16:43.794Z,19.50
2018-07-10T16:19:17.262Z,19.37
2018-07-10T16:21:56.585Z,19.03
2018-07-10T16:24:26.216Z,19.50
2018-07-10T16:26:56.079Z,18.73
2018-07-10T16:29:26.243Z,17.70
2018-07-10T16:32:00.031Z,18.07
2018-07-10T16:34:29.975Z,18.70
2018-07-10T16:37:00.065Z,19.53
2018-07-10T16:39:29.950Z,18.07
2018-07-10T16:42:04.841Z,17.10
2018-07-10T16:44:36.003Z,16.83
2018-07-10T16:47:10.811Z,17.07
2018-07-10T16:49:47.389Z,16.33
2018-07-10T16:53:22.977Z,16.00
2018-07-10T16:55:52.693Z,16.40
2018-07-10T16:58:22.607Z,17.30
2018-07-10T17:00:52.731Z,17.40
2018-07-10T17:03:22.503Z,17.50
2018-07-10T17:05:52.492Z,16.30
2018-07-10T17:08:22.458Z,17.00
2018-07-10T17:10:52.679Z,14.80
2018-07-10T17:13:22.863Z,15.77
2018-07-10T17:15:52.842Z,15.17
2018-07-10T17:18:22.919Z,15.90
2018-07-10T17:20:52.785Z,14.93
2018-07-10T17:23:22.518Z,16.87
2018-07-10T17:25:52.355Z,15.63
2018-07-10T17:28:22.178Z,17.50
2018-07-10T17:30:52.122Z,16.80
2018-07-10T17:33:22.486Z,17.57
2018-07-10T17:35:52.380Z,17.33
2018-07-10T17:38:22.263Z,19.30
2018-07-10T17:40:52.457Z,18.77
2018-07-10T17:43:23.083Z,19.03
2018-07-10T17:45:53.463Z,19.03
2018-07-10T17:48:23.981Z,19.70
2018-07-10T17:50:53.838Z,19.70
2018-07-10T17:53:23.924Z,19.43
2018-07-10T17:55:53.655Z,20.23
2018-07-10T17:58:23.754Z,19.07
2018-07-10T18:00:53.728Z,18.70
2018-07-10T18:03:23.395Z,17.67
2018-07-10T18:05:53.321Z,21.17
2018-07-10T18:08:23.412Z,20.33
2018-07-10T18:10:53.478Z,19.20
2018-07-10T18:13:23.351Z,20.77
2018-07-10T18:15:53.231Z,20.80
2018-07-10T18:18:23.270Z,21.03
2018-07-10T18:20:53.243Z,21.47
2018-07-10T18:23:23.125Z,22.07
2018-07-10T18:25:52.824Z,21.03
2018-07-10T18:28:22.377Z,20.60
2018-07-10T18:30:52.216Z,21.57
2018-07-10T18:33:22.178Z,21.70
2018-07-10T18:35:52.246Z,21.07
2018-07-10T18:38:22.011Z,19.60
2018-07-10T18:40:52.026Z,22.63
2018-07-10T18:43:21.794Z,24.43
2018-07-10T18:45:51.865Z,22.90
2018-07-10T18:48:25.641Z,21.40
2018-07-10T18:50:56.647Z,21.57
2018-07-10T18:53:27.399Z,21.30
2018-07-10T18:55:57.131Z,20.40
2018-07-10T18:58:30.327Z,20.53
2018-07-10T19:01:52.732Z,20.87
2018-07-10T19:04:28.830Z,21.57
2018-07-10T19:06:58.783Z,22.73
2018-07-10T19:09:33.864Z,21.20
2018-07-10T19:12:05.647Z,18.80
2018-07-10T19:14:35.647Z,18.17
2018-07-10T19:17:09.666Z,19.50
2018-07-10T19:19:39.403Z,18.87
2018-07-10T19:22:11.942Z,18.07
2018-07-10T19:24:42.922Z,16.83
2018-07-10T19:27:24.496Z,19.80
2018-07-10T19:29:57.366Z,16.70
2018-07-10T19:32:27.461Z,16.53
2018-07-10T19:35:00.797Z,14.43
2018-07-10T19:37:32.548Z,15.10
2018-07-10T19:40:02.700Z,14.70
2018-07-10T19:42:33.946Z,15.43
2018-07-10T19:45:05.179Z,15.40
2018-07-10T19:47:35.357Z,12.27
2018-07-10T19:50:13.591Z,13.67
2018-07-10T19:52:45.967Z,13.63
2018-07-10T19:55:15.851Z,12.60
2018-07-10T19:58:07.276Z,12.00
2018-07-10T20:00:43.652Z,12.10
2018-07-10T20:03:23.618Z,12.10
2018-07-10T20:05:53.438Z,11.63
2018-07-10T20:08:23.282Z,11.20
2018-07-10T20:10:58.349Z,12.30
2018-07-10T20:13:58.534Z,12.50
2018-07-10T20:16:51.706Z,12.87
2018-07-10T20:19:34.076Z,10.23
2018-07-10T20:22:10.517Z,11.50
2018-07-10T20:24:44.435Z,11.87
2018-07-10T20:27:27.058Z,11.43
2018-07-10T20:30:09.023Z,10.87
2018-07-10T20:32:46.480Z,11.10
2018-07-10T20:35:22.085Z,11.43
2018-07-10T20:37:51.746Z,12.10
2018-07-10T20:40:31.463Z,11.20
2018-07-10T20:43:07.435Z,11.27
2018-07-10T20:45:46.540Z,11.27
2018-07-10T20:48:37.177Z,10.60
2018-07-10T20:51:08.531Z,9.10
2018-07-10T20:53:45.435Z,10.33
2018-07-10T20:56:20.767Z,9.50
2018-07-10T20:59:11.870Z,9.27
2018-07-10T21:01:42.214Z,10.03
2018-07-10T21:04:35.674Z,9.63
2018-07-10T21:07:12.132Z,10.13
2018-07-10T21:09:58.842Z,9.23
2018-07-10T21:12:34.699Z,10.77
2018-07-10T21:15:07.696Z,10.00
2018-07-10T21:17:45.669Z,10.03
2018-07-10T21:20:29.235Z,10.03
2018-07-10T21:23:21.411Z,10.40
2018-07-10T21:25:56.981Z,10.40
2018-07-10T21:29:07.147Z,10.07
2018-07-10T21:31:44.778Z,10.73
2018-07-10T21:34:19.439Z,9.70
2018-07-10T21:39:05.706Z,10.37
2018-07-10T21:41:46.571Z,10.50
2018-07-10T21:46:32.082Z,10.90
2018-07-10T21:49:12.721Z,9.57
2018-07-10T21:51:48.302Z,9.90
2018-07-10T21:54:18.167Z,9.40
2018-07-10T21:56:47.983Z,9.50
2018-07-10T21:59:19.256Z,8.90
2018-07-10T22:01:55.615Z,9.03
2018-07-10T22:04:28.903Z,9.97
2018-07-10T22:06:59.939Z,8.37
2018-07-10T22:09:30.980Z,9.03
2018-07-10T22:12:01.815Z,9.87
2018-07-10T22:14:31.867Z,8.67
2018-07-10T22:17:02.884Z,8.93
2018-07-10T22:19:35.917Z,8.70
2018-07-10T22:22:05.741Z,8.40
2018-07-10T22:24:35.804Z,8.77
2018-07-10T22:27:05.824Z,8.67
2018-07-10T22:29:40.996Z,8.50
2018-07-10T22:32:15.845Z,8.03
2018-07-10T22:34:45.905Z,7.83
2018-07-10T22:37:15.903Z,8.00
2018-07-10T22:39:45.790Z,8.43
2018-07-10T22:42:15.534Z,8.83
2018-07-10T22:44:50.206Z,8.17
2018-07-10T22:47:24.011Z,7.97
2018-07-10T22:49:55.319Z,8.67
2018-07-10T22:52:25.461Z,8.20
2018-07-10T22:54:55.151Z,8.47
2018-07-10T22:57:25.221Z,8.53
2018-07-10T22:59:54.996Z,7.87
2018-07-10T23:02:25.096Z,9.17
2018-07-10T23:04:54.733Z,8.33
2018-07-10T23:07:24.235Z,8.73
2018-07-10T23:09:53.776Z,7.70
2018-07-10T23:12:23.595Z,7.37
2018-07-10T23:14:53.383Z,7.30
2018-07-10T23:17:22.743Z,7.80
2018-07-10T23:19:52.236Z,8.03
2018-07-10T23:22:26.070Z,7.87
2018-07-10T23:24:55.792Z,7.73
2018-07-10T23:27:25.429Z,8.20
2018-07-10T23:29:55.174Z,8.97
2018-07-10T23:32:24.749Z,10.23
2018-07-10T23:34:54.408Z,10.83
2018-07-10T23:37:24.166Z,9.80
2018-07-10T23:39:57.845Z,9.83
2018-07-10T23:42:31.706Z,11.30
2018-07-10T23:45:35.360Z,10.60
2018-07-10T23:48:06.654Z,10.40
2018-07-10T23:50:37.290Z,10.47
2018-07-10T23:53:17.951Z,11.37
2018-07-10T23:55:47.806Z,11.27
2018-07-10T23:58:17.644Z,10.33
